Time;durP1;ratioP1;P1;durP2;ratioP2;P2;SDS_P1;SDS_P2;PMS_P1;PMS_P2;Temp;Humidity;BMP_temperature;BMP_pressure;BME280_temperature;BME280_humidity;BME280_pressure;Samples;Min_cycle;Max_cycle;Signal;HPM_P1;HPM_P2
2024/01/21 00:01:29;;;;;;;17.03;11.23;;;;;;;;;;5030634;28;20485;-57
2024/01/21 00:03:57;;;;;;;18.23;11.47;;;;;;;;;;5032004;28;21005;-58
2024/01/21 00:06:24;;;;;;;18.77;12.23;;;;;;;;;;5031226;28;20463;-58
2024/01/21 00:08:52;;;;;;;17.70;11.80;;;;;;;;;;5026813;28;20486;-58
2024/01/21 00:11:20;;;;;;;14.67;10.90;;;;;;;;;;5030231;28;20868;-58
2024/01/21 00:13:47;;;;;;;13.17;10.60;;;;;;;;;;5030609;28;20482;-58
2024/01/21 00:16:14;;;;;;;14.83;10.53;;;;;;;;;;5020271;28;20514;-58
2024/01/21 00:18:41;;;;;;;17.43;10.40;;;;;;;;;;5027993;28;20863;-58
2024/01/21 00:21:09;;;;;;;14.63;9.50;;;;;;;;;;5026829;28;21118;-58
2024/01/21 00:23:36;;;;;;;10.80;8.30;;;;;;;;;;5029470;28;20564;-58
2024/01/21 00:26:05;;;;;;;13.37;9.37;;;;;;;;;;5032233;28;20527;-58
2024/01/21 00:28:32;;;;;;;10.33;8.20;;;;;;;;;;5031435;28;20453;-58
2024/01/21 00:31:00;;;;;;;14.53;9.00;;;;;;;;;;5031326;28;20446;-58
2024/01/21 00:33:27;;;;;;;11.00;8.43;;;;;;;;;;5031620;28;21044;-58
2024/01/21 00:35:54;;;;;;;13.87;8.57;;;;;;;;;;5027346;28;20466;-58
2024/01/21 00:38:21;;;;;;;10.83;8.17;;;;;;;;;;5029714;28;20485;-58
2024/01/21 00:40:49;;;;;;;12.57;8.63;;;;;;;;;;5024580;28;20442;-58
2024/01/21 00:43:17;;;;;;;11.00;8.67;;;;;;;;;;5022978;28;20896;-58
2024/01/21 00:45:44;;;;;;;10.03;8.10;;;;;;;;;;5033818;28;20501;-58
2024/01/21 00:48:12;;;;;;;10.93;8.43;;;;;;;;;;5025601;28;20503;-58
2024/01/21 00:50:39;;;;;;;9.80;8.03;;;;;;;;;;5025935;28;20453;-58
2024/01/21 00:53:06;;;;;;;9.90;8.90;;;;;;;;;;5031193;28;20555;-58
2024/01/21 00:55:33;;;;;;;11.30;8.57;;;;;;;;;;5031653;28;20458;-58
2024/01/21 00:58:00;;;;;;;16.20;9.30;;;-4.10;99.90;;;;;;5029644;28;20219;-58
2024/01/21 01:00:29;;;;;;;10.13;8.47;;;;;;;;;;5031634;28;20445;-58
2024/01/21 01:02:56;;;;;;;12.33;8.70;;;;;;;;;;5031920;28;20462;-58
2024/01/21 01:05:24;;;;;;;16.00;8.90;;;;;;;;;;5022130;28;20512;-58
2024/01/21 01:07:51;;;;;;;12.77;8.47;;;;;;;;;;5031899;28;20489;-58
2024/01/21 01:10:18;;;;;;;11.20;8.53;;;-4.50;99.90;;;;;;5032939;28;20457;-58
2024/01/21 01:12:45;;;;;;;12.93;9.00;;;;;;;;;;5029213;28;20478;-58
2024/01/21 01:15:13;;;;;;;13.27;8.90;;;;;;;;;;5025779;28;20494;-58
2024/01/21 01:17:42;;;;;;;14.40;9.63;;;;;;;;;;5029603;28;20994;-58
2024/01/21 01:20:09;;;;;;;16.43;10.37;;;;;;;;;;5024766;28;20439;-58
2024/01/21 01:22:36;;;;;;;16.40;10.37;;;-4.80;99.90;;;;;;5015638;28;20474;-58
2024/01/21 01:25:03;;;;;;;16.23;10.87;;;-4.70;99.90;;;;;;5032707;28;20496;-58
2024/01/21 01:27:30;;;;;;;15.73;10.70;;;-4.70;99.90;;;;;;5031074;28;20499;-58
2024/01/21 01:29:58;;;;;;;15.80;10.17;;;;;;;;;;5029571;28;20499;-58
2024/01/21 01:32:24;;;;;;;14.10;9.37;;;-5.00;99.90;;;;;;5029313;28;20491;-58
2024/01/21 01:34:55;;;;;;;17.23;9.87;;;;;;;;;;5032152;28;20942;-58
2024/01/21 01:37:22;;;;;;;19.10;10.33;;;;;;;;;;5031979;28;20558;-58
2024/01/21 01:39:49;;;;;;;16.43;9.10;;;-5.20;99.90;;;;;;5032365;28;20466;-58
2024/01/21 01:42:16;;;;;;;16.53;9.67;;;;;;;;;;5030961;28;20478;-58
2024/01/21 01:44:43;;;;;;;16.73;10.60;;;;;;;;;;5032134;28;20500;-58
2024/01/21 01:47:15;;;;;;;14.13;10.60;;;;;;;;;;5032238;28;20940;-58
2024/01/21 01:49:43;;;;;;;17.23;10.97;;;;;;;;;;5032465;28;21048;-58
2024/01/21 01:52:14;;;;;;;16.93;10.03;;;;;;;;;;5030159;28;20512;-58
2024/01/21 01:54:42;;;;;;;15.40;9.90;;;;;;;;;;5029401;28;20473;-58
2024/01/21 01:57:13;;;;;;;15.33;10.47;;;-5.10;99.90;;;;;;5029058;28;20490;-58
2024/01/21 01:59:40;;;;;;;17.97;12.03;;;-5.00;99.90;;;;;;5031977;28;20481;-58
2024/01/21 02:02:11;;;;;;;20.27;10.90;;;-4.20;99.90;;;;;;5029974;28;20540;-58
2024/01/21 02:04:38;;;;;;;15.37;9.93;;;-5.10;99.90;;;;;;5023527;28;20433;-58
2024/01/21 02:07:05;;;;;;;14.53;9.20;;;-5.10;99.90;;;;;;5031076;28;20496;-58
2024/01/21 02:09:34;;;;;;;16.50;11.43;;;-5.10;99.90;;;;;;5023649;28;20857;-58
2024/01/21 02:12:01;;;;;;;18.13;10.33;;;-5.20;99.90;;;;;;5030282;28;21131;-58
2024/01/21 02:14:28;;;;;;;17.50;10.23;;;-5.20;99.90;;;;;;5030755;28;20491;-58
2024/01/21 02:16:55;;;;;;;17.70;10.57;;;-5.20;99.90;;;;;;5023264;28;20438;-58
2024/01/21 02:19:27;;;;;;;20.30;10.43;;;-5.20;99.90;;;;;;5031578;28;20531;-58
2024/01/21 02:21:54;;;;;;;16.90;11.23;;;-5.20;99.90;;;;;;5031136;28;20552;-58
2024/01/21 02:24:28;;;;;;;17.53;10.23;;;-5.40;99.90;;;;;;5031473;28;20442;-58
2024/01/21 02:26:55;;;;;;;12.47;9.70;;;-5.40;99.90;;;;;;5028054;28;20446;-58
2024/01/21 02:29:22;;;;;;;15.37;9.00;;;-5.40;99.90;;;;;;5025847;28;20505;-58
2024/01/21 02:31:49;;;;;;;15.73;9.80;;;-5.40;99.90;;;;;;5027990;28;20429;-58
2024/01/21 02:34:16;;;;;;;12.97;9.50;;;-5.40;99.90;;;;;;5031683;28;20445;-58
2024/01/21 02:36:43;;;;;;;16.70;10.43;;;-5.40;99.90;;;;;;5031947;28;20492;-58
2024/01/21 02:39:10;;;;;;;13.90;10.10;;;-5.50;99.90;;;;;;5033955;28;20474;-58
2024/01/21 02:41:38;;;;;;;15.17;9.67;;;-5.50;99.90;;;;;;5029440;28;20531;-58
2024/01/21 02:44:05;;;;;;;17.47;10.27;;;-5.40;99.90;;;;;;5035259;28;20529;-58
2024/01/21 02:46:32;;;;;;;16.60;10.50;;;-5.50;99.90;;;;;;5034063;28;20465;-58
2024/01/21 02:48:59;;;;;;;19.70;11.47;;;-5.50;99.90;;;;;;5039131;28;20489;-58
2024/01/21 02:51:26;;;;;;;21.40;10.20;;;-5.40;99.90;;;;;;5034715;28;20856;-58
2024/01/21 02:53:53;;;;;;;13.43;9.73;;;-5.40;99.90;;;;;;5031651;28;20555;-58
2024/01/21 02:56:21;;;;;;;15.33;10.30;;;-5.50;99.90;;;;;;5028704;28;20492;-58
2024/01/21 02:58:50;;;;;;;16.30;9.83;;;-5.40;99.90;;;;;;5033302;28;20927;-58
2024/01/21 03:01:17;;;;;;;15.17;10.67;;;-5.40;99.90;;;;;;5034330;28;20437;-58
2024/01/21 03:03:44;;;;;;;19.77;9.67;;;-5.30;99.90;;;;;;5035014;28;20561;-58
2024/01/21 03:06:11;;;;;;;14.80;10.17;;;-5.40;99.90;;;;;;5031352;28;20513;-58
2024/01/21 03:08:39;;;;;;;13.97;9.30;;;-5.30;99.90;;;;;;5030249;28;20936;-58
2024/01/21 03:11:06;;;;;;;15.17;9.77;;;-5.20;99.90;;;;;;5014773;28;20439;-58
2024/01/21 03:13:33;;;;;;;17.90;9.10;;;-5.20;99.90;;;;;;5033711;28;20466;-58
2024/01/21 03:16:01;;;;;;;13.07;9.90;;;-5.20;99.90;;;;;;5034622;28;20488;-58
2024/01/21 03:18:28;;;;;;;11.27;9.13;;;-5.10;99.90;;;;;;5033697;28;21091;-58
2024/01/21 03:20:55;;;;;;;14.77;9.37;;;-5.20;99.90;;;;;;5034085;28;20949;-58
2024/01/21 03:23:22;;;;;;;14.07;8.37;;;-5.10;99.90;;;;;;5032762;28;20531;-58
2024/01/21 03:25:49;;;;;;;19.97;11.23;;;-5.00;99.90;;;;;;5032137;28;20516;-58
2024/01/21 03:28:19;;;;;;;15.53;10.47;;;-5.00;99.90;;;;;;5032598;28;20446;-58
2024/01/21 03:30:46;;;;;;;15.83;10.13;;;-5.10;99.90;;;;;;5032919;28;20457;-58
2024/01/21 03:33:14;;;;;;;15.83;9.90;;;-5.10;99.90;;;;;;5028475;28;20457;-58
2024/01/21 03:35:41;;;;;;;17.23;10.13;;;-5.00;99.90;;;;;;5034254;28;20499;-58
2024/01/21 03:38:08;;;;;;;18.87;10.03;;;-5.10;99.90;;;;;;5034405;28;20478;-58
2024/01/21 03:40:35;;;;;;;16.87;10.87;;;-5.10;99.90;;;;;;5031656;28;20485;-58
2024/01/21 03:43:02;;;;;;;13.73;9.03;;;-5.10;99.90;;;;;;5032846;28;20482;-58
2024/01/21 03:45:29;;;;;;;16.40;10.10;;;-5.30;99.90;;;;;;5032924;28;20965;-58
2024/01/21 03:47:56;;;;;;;15.27;8.83;;;-5.30;99.90;;;;;;5018643;28;20453;-57
2024/01/21 03:50:24;;;;;;;16.07;9.77;;;-5.30;99.90;;;;;;5033535;28;20516;-58
2024/01/21 03:52:51;;;;;;;15.57;8.47;;;-5.40;99.90;;;;;;5032688;28;20481;-57
2024/01/21 03:55:20;;;;;;;12.40;8.60;;;-5.50;99.90;;;;;;5034118;28;20500;-58
2024/01/21 03:57:47;;;;;;;13.87;10.17;;;-5.40;99.90;;;;;;5034063;28;20445;-57
2024/01/21 04:00:15;;;;;;;15.13;9.17;;;-5.40;99.90;;;;;;5034288;28;20438;-57
2024/01/21 04:02:42;;;;;;;16.33;8.47;;;-5.50;99.90;;;;;;5030945;28;20543;-58
2024/01/21 04:05:09;;;;;;;13.37;9.57;;;-5.50;99.90;;;;;;5033333;28;20449;-57
2024/01/21 04:07:38;;;;;;;16.77;10.47;;;-5.60;99.90;;;;;;5033865;28;20445;-58
2024/01/21 04:10:06;;;;;;;21.97;10.73;;;-5.60;99.90;;;;;;5034312;28;20504;-57
2024/01/21 04:12:34;;;;;;;22.33;11.13;;;-5.50;99.90;;;;;;5025388;28;20493;-57
2024/01/21 04:15:01;;;;;;;13.77;10.03;;;-5.50;99.90;;;;;;5031284;28;20476;-57
2024/01/21 04:17:31;;;;;;;15.53;9.37;;;-5.50;99.90;;;;;;5032286;28;20477;-57
2024/01/21 04:19:58;;;;;;;13.03;9.43;;;-5.50;99.90;;;;;;5027090;28;20487;-58
2024/01/21 04:22:24;;;;;;;17.60;9.43;;;-5.50;99.90;;;;;;5027033;28;20539;-57
2024/01/21 04:24:53;;;;;;;16.57;9.40;;;-5.40;99.90;;;;;;5030879;28;20441;-58
2024/01/21 04:27:20;;;;;;;14.67;9.77;;;-5.00;99.90;;;;;;5032445;28;20456;-58
2024/01/21 04:29:47;;;;;;;19.37;9.73;;;-5.50;99.90;;;;;;5034249;28;20433;-57
2024/01/21 04:32:14;;;;;;;12.90;9.83;;;-5.50;99.90;;;;;;5028858;28;20453;-57
2024/01/21 04:34:41;;;;;;;10.90;8.23;;;-5.60;99.90;;;;;;5028551;28;20443;-57
2024/01/21 04:37:08;;;;;;;13.43;10.20;;;-5.70;99.90;;;;;;5027468;28;20557;-57
2024/01/21 04:39:35;;;;;;;10.17;8.73;;;-5.80;99.90;;;;;;5029130;28;20486;-57
2024/01/21 04:42:04;;;;;;;12.67;9.30;;;-5.70;99.90;;;;;;5030508;28;20480;-57
2024/01/21 04:44:31;;;;;;;12.17;8.47;;;-5.60;99.90;;;;;;5031441;28;20493;-57
2024/01/21 04:46:58;;;;;;;12.53;9.03;;;-5.70;99.90;;;;;;5031490;28;20964;-57
2024/01/21 04:49:25;;;;;;;9.57;7.87;;;-5.70;99.90;;;;;;5027746;28;20453;-57
2024/01/21 04:51:52;;;;;;;14.03;9.67;;;-5.90;99.90;;;;;;5029049;28;20524;-57
2024/01/21 04:54:19;;;;;;;14.07;9.40;;;-5.90;99.90;;;;;;5031811;28;20445;-58
2024/01/21 04:56:46;;;;;;;15.93;9.13;;;-6.10;99.90;;;;;;5031679;28;21746;-57
2024/01/21 04:59:15;;;;;;;16.40;10.33;;;-6.10;99.90;;;;;;5030527;28;20477;-57
2024/01/21 05:01:42;;;;;;;16.67;9.60;;;-6.20;99.90;;;;;;5029978;28;21236;-57
2024/01/21 05:04:09;;;;;;;13.30;10.10;;;-6.20;99.90;;;;;;5028948;28;20446;-57
2024/01/21 05:06:36;;;;;;;14.20;9.27;;;-6.00;99.90;;;;;;5027842;28;20537;-57
2024/01/21 05:09:03;;;;;;;15.53;10.77;;;-5.90;99.90;;;;;;5031465;28;20446;-57
2024/01/21 05:11:30;;;;;;;13.93;9.73;;;-6.00;99.90;;;;;;5030446;28;20857;-57
2024/01/21 05:13:57;;;;;;;18.93;10.17;;;-6.10;99.90;;;;;;5030592;28;20469;-57
2024/01/21 05:16:26;;;;;;;11.30;9.07;;;-6.00;99.90;;;;;;5025675;28;21158;-57
2024/01/21 05:18:53;;;;;;;15.50;9.47;;;-6.00;99.90;;;;;;5031040;28;20490;-61
2024/01/21 05:21:21;;;;;;;15.20;9.93;;;-6.00;99.90;;;;;;5028800;28;20461;-57
2024/01/21 05:23:48;;;;;;;16.70;9.63;;;-6.00;99.90;;;;;;5030530;28;20981;-57
2024/01/21 05:26:15;;;;;;;13.07;9.53;;;-6.00;99.90;;;;;;5027109;28;20464;-57
2024/01/21 05:28:43;;;;;;;16.30;10.03;;;-6.00;99.90;;;;;;5027157;28;20445;-57
2024/01/21 05:31:10;;;;;;;14.93;9.57;;;-6.00;99.90;;;;;;5028607;28;20814;-56
2024/01/21 05:33:40;;;;;;;13.80;8.60;;;-6.00;99.90;;;;;;5028178;28;20889;-57
2024/01/21 05:36:09;;;;;;;14.87;9.50;;;-6.10;99.90;;;;;;5030672;28;20441;-57
2024/01/21 05:38:36;;;;;;;16.23;9.17;;;-6.00;99.90;;;;;;5030643;28;20443;-57
2024/01/21 05:41:03;;;;;;;19.17;10.00;;;-6.10;99.90;;;;;;5028749;28;20441;-57
2024/01/21 05:43:30;;;;;;;16.13;10.37;;;-6.20;99.90;;;;;;5029219;28;20548;-56
2024/01/21 05:45:57;;;;;;;19.57;9.77;;;-6.00;99.90;;;;;;5029131;28;20453;-56
2024/01/21 05:48:24;;;;;;;13.83;8.97;;;-6.00;99.90;;;;;;5030415;28;20938;-57
2024/01/21 05:50:52;;;;;;;20.07;11.03;;;-6.00;99.90;;;;;;5029733;28;20865;-57
2024/01/21 05:53:19;;;;;;;12.60;9.73;;;-6.10;99.90;;;;;;5030325;28;20461;-56
2024/01/21 05:55:47;;;;;;;14.67;9.37;;;-6.10;99.90;;;;;;5030472;28;20453;-56
2024/01/21 05:58:15;;;;;;;15.47;10.67;;;-6.20;99.90;;;;;;5024593;28;20985;-57
2024/01/21 06:00:41;;;;;;;12.30;9.27;;;-6.10;99.90;;;;;;5027723;28;20520;-56
2024/01/21 06:03:08;;;;;;;14.83;9.60;;;-6.20;99.90;;;;;;5025955;28;20513;-57
2024/01/21 06:05:34;;;;;;;16.97;10.47;;;-6.20;99.90;;;;;;5028998;28;20194;-57
2024/01/21 06:08:03;;;;;;;20.37;10.30;;;-6.20;99.90;;;;;;5023396;28;20447;-57
2024/01/21 06:10:30;;;;;;;16.83;9.97;;;-6.00;99.90;;;;;;5030724;28;20462;-56
2024/01/21 06:12:57;;;;;;;16.00;10.13;;;-6.00;99.90;;;;;;5026975;28;20473;-57
2024/01/21 06:15:24;;;;;;;17.97;10.97;;;-6.00;99.90;;;;;;5031743;28;20442;-57
2024/01/21 06:17:51;;;;;;;16.70;10.30;;;-6.10;99.90;;;;;;5026664;28;20859;-57
2024/01/21 06:20:18;;;;;;;22.57;11.77;;;;;;;;;;5031036;28;20567;-57
2024/01/21 06:22:45;;;;;;;14.83;10.87;;;-6.10;99.90;;;;;;5024369;28;20527;-57
2024/01/21 06:25:14;;;;;;;16.53;10.67;;;-6.10;99.90;;;;;;5029227;28;20523;-57
2024/01/21 06:27:41;;;;;;;19.80;11.00;;;-6.00;99.90;;;;;;5021311;28;20899;-57
2024/01/21 06:30:15;;;;;;;16.77;10.13;;;-6.00;99.90;;;;;;5029968;28;20461;-57
2024/01/21 06:32:42;;;;;;;17.67;11.20;;;-6.00;99.90;;;;;;5022758;28;20568;-57
2024/01/21 06:35:10;;;;;;;19.20;11.10;;;;;;;;;;5030975;28;20449;-57
2024/01/21 06:37:37;;;;;;;14.67;11.10;;;-5.00;99.90;;;;;;5029613;28;20533;-56
2024/01/21 06:40:05;;;;;;;15.27;10.73;;;-6.00;99.90;;;;;;5030671;28;20485;-57
2024/01/21 06:42:33;;;;;;;15.10;9.67;;;;;;;;;;5027486;28;21059;-56
2024/01/21 06:45:00;;;;;;;18.43;12.40;;;-5.90;99.90;;;;;;5030287;28;20441;-57
2024/01/21 06:47:27;;;;;;;20.13;12.10;;;-6.00;99.90;;;;;;5028662;28;20474;-57
2024/01/21 06:49:55;;;;;;;14.17;9.93;;;;;;;;;;5030838;28;20437;-57
2024/01/21 06:52:23;;;;;;;28.37;13.07;;;-6.30;99.90;;;;;;5021146;28;21091;-57
2024/01/21 06:54:50;;;;;;;17.60;11.73;;;;;;;;;;5031153;28;20441;-57
2024/01/21 06:57:18;;;;;;;16.93;10.33;;;;;;;;;;5025317;28;20457;-56
2024/01/21 06:59:46;;;;;;;23.47;11.07;;;;;;;;;;5030487;28;20539;-57
2024/01/21 07:02:14;;;;;;;14.13;11.33;;;;;;;;;;5026274;28;21005;-56
2024/01/21 07:04:41;;;;;;;18.13;11.07;;;;;;;;;;5028816;28;20462;-57
2024/01/21 07:07:08;;;;;;;16.93;11.20;;;;;;;;;;5027353;28;20524;-57
2024/01/21 07:09:35;;;;;;;15.50;11.93;;;;;;;;;;5017932;28;20537;-57
2024/01/21 07:12:04;;;;;;;19.13;12.07;;;;;;;;;;5017848;28;20556;-57
2024/01/21 07:14:34;;;;;;;19.03;12.17;;;-5.70;99.90;;;;;;5024987;28;20466;-57
2024/01/21 07:17:03;;;;;;;15.53;11.43;;;-6.10;99.90;;;;;;5029184;28;20489;-57
2024/01/21 07:19:30;;;;;;;16.50;12.50;;;-5.60;99.90;;;;;;5027964;28;20485;-57
2024/01/21 07:21:58;;;;;;;22.10;12.33;;;-5.40;99.90;;;;;;5028644;28;21080;-57
2024/01/21 07:24:25;;;;;;;20.63;11.97;;;-5.30;99.90;;;;;;5019295;28;21024;-57
2024/01/21 07:26:52;;;;;;;21.10;14.90;;;-5.20;99.90;;;;;;5025312;28;20463;-57
2024/01/21 07:29:19;;;;;;;28.50;14.87;;;-5.20;99.90;;;;;;5034052;28;20484;-57
2024/01/21 07:31:46;;;;;;;26.50;16.87;;;-5.20;99.90;;;;;;5031141;28;20491;-57
2024/01/21 07:34:14;;;;;;;26.10;15.27;;;-5.10;99.90;;;;;;5023713;28;20979;-57
2024/01/21 07:36:41;;;;;;;29.50;17.90;;;-5.00;99.90;;;;;;5023190;28;20469;-57
2024/01/21 07:39:08;;;;;;;31.00;19.80;;;-5.00;99.90;;;;;;5028305;28;20466;-56
2024/01/21 07:41:35;;;;;;;26.87;17.57;;;-4.90;99.90;;;;;;5031865;28;20539;-57
2024/01/21 07:44:03;;;;;;;27.00;17.03;;;;;;;;;;5027249;28;21154;-56
2024/01/21 07:46:29;;;;;;;24.53;15.37;;;-4.20;99.90;;;;;;5025524;28;20521;-56
2024/01/21 07:48:56;;;;;;;25.27;16.77;;;-4.60;99.90;;;;;;5031754;28;20511;-57
2024/01/21 07:51:25;;;;;;;24.07;15.73;;;-4.70;99.90;;;;;;5029412;28;20439;-56
2024/01/21 07:53:52;;;;;;;25.47;15.87;;;-4.50;99.90;;;;;;5033250;28;20466;-57
2024/01/21 07:56:19;;;;;;;21.57;15.53;;;-4.50;99.90;;;;;;5033745;28;20442;-57
2024/01/21 07:58:46;;;;;;;25.33;15.23;;;-4.20;99.90;;;;;;5029849;28;20441;-57
2024/01/21 08:01:13;;;;;;;27.20;16.43;;;-4.20;99.90;;;;;;5027558;28;20576;-57
2024/01/21 08:03:40;;;;;;;33.73;20.47;;;-3.90;99.90;;;;;;5028764;28;20465;-57
2024/01/21 08:06:08;;;;;;;41.60;20.77;;;-3.90;99.90;;;;;;5028055;28;20442;-57
2024/01/21 08:08:37;;;;;;;29.07;15.37;;;-3.70;99.90;;;;;;5031697;28;20534;-57
2024/01/21 08:11:04;;;;;;;21.27;14.67;;;-3.60;99.90;;;;;;5029204;28;20438;-57
2024/01/21 08:13:31;;;;;;;24.40;14.83;;;-3.60;99.90;;;;;;5029030;28;20470;-57
2024/01/21 08:15:58;;;;;;;24.13;13.17;;;-3.50;99.90;;;;;;5027981;28;20443;-57
2024/01/21 08:18:25;;;;;;;21.93;14.80;;;-3.30;99.90;;;;;;5027816;28;20442;-57
2024/01/21 08:20:52;;;;;;;23.50;14.50;;;-3.20;99.90;;;;;;5027689;28;20573;-58
2024/01/21 08:23:20;;;;;;;25.53;15.63;;;;;;;;;;5025429;28;20312;-56
2024/01/21 08:25:48;;;;;;;25.93;15.63;;;-2.60;99.90;;;;;;5031915;28;20477;-57
2024/01/21 08:28:15;;;;;;;20.73;14.33;;;-2.70;99.90;;;;;;5030281;28;20686;-57
2024/01/21 08:30:42;;;;;;;21.80;14.93;;;-2.40;99.90;;;;;;5030541;28;20204;-57
2024/01/21 08:33:09;;;;;;;21.10;14.80;;;-2.20;99.90;;;;;;5029831;28;20463;-57
2024/01/21 08:35:37;;;;;;;23.70;13.93;;;-1.80;99.90;;;;;;5030808;28;20202;-56
2024/01/21 08:38:04;;;;;;;32.17;17.10;;;-1.80;99.90;;;;;;5031731;28;20196;-57
2024/01/21 08:40:31;;;;;;;31.20;17.87;;;-1.40;99.90;;;;;;5029249;28;20223;-57
2024/01/21 08:43:00;;;;;;;27.87;16.70;;;-1.10;99.90;;;;;;5031466;28;20247;-57
2024/01/21 08:45:27;;;;;;;29.30;15.60;;;-0.80;99.90;;;;;;5029211;28;20323;-57
2024/01/21 08:47:54;;;;;;;33.57;16.60;;;-0.80;99.90;;;;;;5029106;28;20284;-57
2024/01/21 08:50:21;;;;;;;30.03;16.20;;;-0.60;99.90;;;;;;5024782;28;20204;-57
2024/01/21 08:52:48;;;;;;;23.63;14.80;;;-0.80;99.90;;;;;;5031908;28;20764;-57
2024/01/21 08:55:15;;;;;;;23.27;14.87;;;-0.30;99.90;;;;;;5031038;28;20292;-57
2024/01/21 08:57:42;;;;;;;21.33;14.03;;;-0.50;99.90;;;;;;5030916;28;20196;-57
2024/01/21 09:00:12;;;;;;;22.90;13.27;;;-0.10;99.90;;;;;;5030987;28;20747;-57
2024/01/21 09:02:40;;;;;;;15.93;12.53;;;-0.10;99.90;;;;;;5031178;28;20745;-57
2024/01/21 09:05:07;;;;;;;18.63;13.57;;;-0.40;99.90;;;;;;5027696;28;20234;-57
2024/01/21 09:07:34;;;;;;;19.03;13.53;;;-0.40;99.90;;;;;;5027963;28;20328;-57
2024/01/21 09:10:03;;;;;;;18.97;14.27;;;-0.40;99.90;;;;;;5026173;28;20653;-57
2024/01/21 09:12:32;;;;;;;19.53;15.20;;;-0.10;99.90;;;;;;5016604;28;20228;-57
2024/01/21 09:15:00;;;;;;;19.50;14.40;;;-0.70;99.90;;;;;;5022297;28;20202;-57
2024/01/21 09:17:28;;;;;;;18.93;14.30;;;-0.30;99.90;;;;;;5025940;28;20257;-57
2024/01/21 09:19:56;;;;;;;23.47;14.70;;;-0.50;99.90;;;;;;5031333;28;20632;-57
2024/01/21 09:22:23;;;;;;;17.77;13.43;;;-0.60;99.90;;;;;;5026754;28;20307;-57
2024/01/21 09:24:50;;;;;;;17.75;13.50;;;-0.40;99.90;;;;;;5028596;28;20504;-55
2024/01/21 09:27:17;;;;;;;16.77;13.83;;;-0.60;99.90;;;;;;5023365;28;20204;-62
2024/01/21 09:29:44;;;;;;;21.87;15.07;;;-0.60;99.90;;;;;;5026764;28;21019;-64
2024/01/21 09:32:11;;;;;;;18.83;13.60;;;-0.10;99.90;;;;;;5029888;28;21780;-60
2024/01/21 09:34:39;;;;;;;18.07;13.37;;;-0.30;99.90;;;;;;5030470;28;20224;-61
2024/01/21 09:37:06;;;;;;;16.87;12.70;;;;;;;;;;5028236;28;20230;-62
2024/01/21 09:39:34;;;;;;;25.20;12.90;;;;;;;;;;5026070;28;20197;-62
2024/01/21 09:42:01;;;;;;;19.03;13.53;;;;;;;;;;5028110;28;20229;-62
2024/01/21 09:44:29;;;;;;;20.53;14.13;;;0.40;99.90;;;;;;5024813;28;20258;-58
2024/01/21 09:46:57;;;;;;;17.70;13.07;;;;;;;;;;5028024;28;20303;-60
2024/01/21 09:49:25;;;;;;;21.23;13.43;;;0.30;99.90;;;;;;5028636;28;20203;-60
2024/01/21 09:51:54;;;;;;;21.37;13.13;;;;;;;;;;5028428;28;20219;-64
2024/01/21 09:54:22;;;;;;;16.93;12.90;;;;;;;;;;5026178;28;20288;-62
2024/01/21 09:56:49;;;;;;;16.07;12.40;;;;;;;;;;5029210;28;20205;-62
2024/01/21 09:59:17;;;;;;;16.40;13.00;;;;;;;;;;5028150;28;20615;-62
2024/01/21 10:01:44;;;;;;;19.00;11.43;;;;;;;;;;5026836;28;20820;-62
2024/01/21 10:04:14;;;;;;;17.43;12.87;;;1.00;99.90;;;;;;5027857;28;20199;-63
2024/01/21 10:06:41;;;;;;;15.00;11.53;;;0.90;99.90;;;;;;5029030;28;20226;-63
2024/01/21 10:09:17;;;;;;;15.17;11.47;;;1.10;99.90;;;;;;5027010;28;20707;-61
2024/01/21 10:11:48;;;;;;;16.13;13.00;;;0.90;99.90;;;;;;5028577;28;20232;-59
2024/01/21 10:14:15;;;;;;;21.10;14.63;;;0.90;99.90;;;;;;5029606;28;20735;-59
2024/01/21 10:16:42;;;;;;;20.27;13.13;;;1.10;99.90;;;;;;5029177;28;20746;-62
2024/01/21 10:19:15;;;;;;;21.00;13.33;;;0.80;99.90;;;;;;5023255;28;20246;-60
2024/01/21 10:21:42;;;;;;;18.30;11.97;;;1.30;99.90;;;;;;5023847;28;20223;-61
2024/01/21 10:24:09;;;;;;;16.70;12.60;;;1.30;99.90;;;;;;5026770;28;20579;-62
2024/01/21 10:26:42;;;;;;;15.60;12.33;;;1.60;99.90;;;;;;5027717;28;20629;-62
2024/01/21 10:29:09;;;;;;;21.33;12.50;;;1.70;99.90;;;;;;5028600;28;20209;-63
2024/01/21 10:31:36;;;;;;;13.67;11.07;;;2.00;99.90;;;;;;5028139;28;20986;-62
2024/01/21 10:34:03;;;;;;;17.67;11.23;;;2.30;99.90;;;;;;5028869;28;20206;-61
2024/01/21 10:36:33;;;;;;;11.10;9.90;;;2.30;99.90;;;;;;5023183;28;20244;-57
2024/01/21 10:39:04;;;;;;;11.40;8.40;;;2.50;99.90;;;;;;5027301;28;20200;-57
2024/01/21 10:41:32;;;;;;;13.33;9.77;;;2.60;99.90;;;;;;5026280;28;20228;-58
2024/01/21 10:44:02;;;;;;;9.97;8.30;;;2.50;99.90;;;;;;5023953;28;20291;-60
2024/01/21 10:46:37;;;;;;;9.10;8.20;;;3.00;99.90;;;;;;5025717;28;20228;-60
2024/01/21 10:49:05;;;;;;;13.80;10.00;;;2.70;99.90;;;;;;5025640;28;20218;-60
2024/01/21 10:51:32;;;;;;;13.27;9.33;;;2.50;99.90;;;;;;5021254;28;20198;-61
2024/01/21 10:54:00;;;;;;;8.70;7.87;;;2.50;99.90;;;;;;5026602;28;20208;-59
2024/01/21 10:56:28;;;;;;;13.23;7.63;;;2.60;99.90;;;;;;5021641;28;20739;-57
2024/01/21 10:58:55;;;;;;;8.60;6.43;;;2.60;99.90;;;;;;5022730;28;20201;-57
2024/01/21 11:01:25;;;;;;;7.47;6.13;;;2.40;99.90;;;;;;5029043;28;20745;-57
2024/01/21 11:04:05;;;;;;;9.33;8.17;;;2.10;99.90;;;;;;5030476;28;20308;-57
2024/01/21 11:06:32;;;;;;;10.70;8.20;;;2.40;99.90;;;;;;5030647;28;20199;-57
2024/01/21 11:09:01;;;;;;;8.60;7.03;;;2.60;99.90;;;;;;5031753;28;20205;-58
2024/01/21 11:11:28;;;;;;;6.77;6.27;;;2.70;99.90;;;;;;5024482;28;20194;-57
2024/01/21 11:13:56;;;;;;;8.97;8.07;;;2.70;99.90;;;;;;5027675;28;20636;-57
2024/01/21 11:16:36;;;;;;;7.60;6.67;;;;;;;;;;5028001;28;20212;-57
2024/01/21 11:19:06;;;;;;;11.27;6.40;;;2.60;99.90;;;;;;5028242;28;20208;-57
2024/01/21 11:21:34;;;;;;;6.87;5.87;;;2.90;99.90;;;;;;5026145;28;20293;-57
2024/01/21 11:24:04;;;;;;;9.50;6.13;;;2.90;99.90;;;;;;5030731;28;20244;-57
2024/01/21 11:26:31;;;;;;;5.80;5.20;;;3.10;99.90;;;;;;5023153;28;20283;-57
2024/01/21 11:28:59;;;;;;;5.83;5.30;;;3.00;99.90;;;;;;5030880;28;20202;-57
2024/01/21 11:31:26;;;;;;;6.87;6.33;;;3.00;99.90;;;;;;5021158;28;20346;-57
2024/01/21 11:34:05;;;;;;;6.00;5.40;;;2.90;99.90;;;;;;5032962;28;20223;-57
2024/01/21 11:36:33;;;;;;;10.83;9.73;;;2.90;99.90;;;;;;5023087;28;20436;-57
2024/01/21 11:39:02;;;;;;;13.43;10.43;;;3.20;99.90;;;;;;5024832;28;20736;-57
2024/01/21 11:41:37;;;;;;;18.23;13.83;;;3.30;99.90;;;;;;5029170;28;20226;-57
2024/01/21 11:44:13;;;;;;;22.27;15.67;;;2.90;99.90;;;;;;5022620;28;20305;-57
2024/01/21 11:46:41;;;;;;;24.23;15.80;;;2.20;99.90;;;;;;5024765;28;20291;-57
2024/01/21 11:49:10;;;;;;;23.20;16.30;;;2.10;99.90;;;;;;5024628;28;20457;-63
2024/01/21 11:51:38;;;;;;;19.53;15.53;;;2.00;99.90;;;;;;5030241;28;20667;-65
2024/01/21 11:54:06;;;;;;;23.10;15.73;;;2.30;99.90;;;;;;5025195;28;20203;-68
2024/01/21 11:56:33;;;;;;;21.97;15.37;;;;;;;;;;5033531;28;20204;-69
2024/01/21 11:59:00;;;;;;;19.67;15.80;;;;;;;;;;5029910;28;20221;-65
2024/01/21 12:01:30;;;;;;;25.27;18.13;;;;;;;;;;5030122;28;20295;-65
2024/01/21 12:03:57;;;;;;;21.77;15.27;;;;;;;;;;5026450;28;20236;-68
2024/01/21 12:06:26;;;;;;;20.43;15.93;;;;;;;;;;5032478;28;20896;-68
2024/01/21 12:08:53;;;;;;;25.00;15.13;;;;;;;;;;5032242;28;20698;-65
2024/01/21 12:11:21;;;;;;;23.77;15.50;;;;;;;;;;5026530;28;20201;-61
2024/01/21 12:13:48;;;;;;;19.67;14.47;;;;;;;;;;5031047;28;20286;-65
2024/01/21 12:16:17;;;;;;;22.63;16.07;;;;;;;;;;5033681;28;20293;-63
2024/01/21 12:18:45;;;;;;;21.67;16.17;;;;;;;;;;5032335;28;20606;-61
2024/01/21 12:21:13;;;;;;;22.90;15.20;;;;;;;;;;5029879;28;20704;-60
2024/01/21 12:23:42;;;;;;;17.17;13.80;;;;;;;;;;5030220;28;20803;-62
2024/01/21 12:26:09;;;;;;;21.63;15.00;;;;;;;;;;5029937;28;20723;-61
2024/01/21 12:28:37;;;;;;;18.87;14.87;;;;;;;;;;5029218;28;20208;-60
2024/01/21 12:31:04;;;;;;;21.17;14.83;;;;;;;;;;5027436;28;20660;-60
2024/01/21 12:33:31;;;;;;;16.93;13.93;;;;;;;;;;5027346;28;20232;-62
2024/01/21 12:35:59;;;;;;;20.47;15.00;;;;;;;;;;5030271;28;20219;-66
2024/01/21 12:38:27;;;;;;;19.87;14.90;;;;;;;;;;5031921;28;20213;-65
2024/01/21 12:40:55;;;;;;;17.60;14.27;;;;;;;;;;5027287;28;20302;-64
2024/01/21 12:43:23;;;;;;;18.57;14.53;;;;;;;;;;5023610;28;20226;-62
2024/01/21 12:45:50;;;;;;;19.50;15.80;;;3.10;99.90;;;;;;5032062;28;20200;-64
2024/01/21 12:48:18;;;;;;;20.30;15.33;;;3.00;99.90;;;;;;5023982;28;20671;-62
2024/01/21 12:50:45;;;;;;;21.10;16.10;;;;;;;;;;5031645;28;20243;-61
2024/01/21 12:53:12;;;;;;;17.57;14.77;;;2.40;99.90;;;;;;5024230;28;20216;-60
2024/01/21 12:55:39;;;;;;;20.20;15.37;;;2.60;99.90;;;;;;5027293;28;20666;-61
2024/01/21 12:58:10;;;;;;;22.33;16.17;;;2.60;99.90;;;;;;5028897;28;20586;-61
2024/01/21 13:00:37;;;;;;;20.37;15.33;;;2.80;99.90;;;;;;5032204;28;20740;-62
2024/01/21 13:03:04;;;;;;;18.70;14.70;;;2.90;99.90;;;;;;5031515;28;20290;-63